Time;durP1;ratioP1;P1;durP2;ratioP2;P2;SDS_P1;SDS_P2;PMS_P1;PMS_P2;Temp;Humidity;BMP_temperature;BMP_pressure;BME280_temperature;BME280_humidity;BME280_pressure;Samples;Min_cycle;Max_cycle;Signal;HPM_P1;HPM_P2
2022/01/06 00:01:19;;;;;;;6.43;1.83;;;1.50;84.20;;;;;;5055412;28;20639;-88
2022/01/06 00:03:46;;;;;;;11.63;2.13;;;1.50;84.20;;;;;;5056726;28;20642;-88
2022/01/06 00:06:12;;;;;;;8.13;2.10;;;1.50;84.30;;;;;;5055225;28;20211;-88
2022/01/06 00:08:39;;;;;;;2.83;2.00;;;1.50;84.40;;;;;;5055056;28;20198;-87
2022/01/06 00:11:07;;;;;;;3.87;2.10;;;1.50;84.40;;;;;;5056552;28;20204;-88
2022/01/06 00:13:48;;;;;;;6.57;1.90;;;1.50;84.20;;;;;;5056317;28;20221;-89
2022/01/06 00:24:14;;;;;;;13.50;2.60;;;1.30;84.80;;;;;;5056992;28;20290;-88
2022/01/06 00:26:40;;;;;;;11.57;3.70;;;1.30;85.00;;;;;;5056419;28;20211;-88
2022/01/06 00:29:05;;;;;;;4.23;1.87;;;1.30;85.10;;;;;;5054957;28;20213;-87
2022/01/06 00:31:32;;;;;;;5.63;2.00;;;1.20;85.20;;;;;;5055904;28;20260;-89
2022/01/06 00:33:58;;;;;;;8.47;2.23;;;1.20;85.30;;;;;;5056136;28;20204;-88
2022/01/06 00:36:24;;;;;;;6.07;2.10;;;1.10;85.40;;;;;;5054907;28;20617;-88
2022/01/06 00:38:50;;;;;;;3.97;2.03;;;1.00;85.60;;;;;;5056093;28;20179;-88
2022/01/06 00:41:15;;;;;;;9.50;1.67;;;1.00;85.80;;;;;;5055327;28;20184;-88
2022/01/06 00:43:41;;;;;;;6.97;3.03;;;1.00;86.00;;;;;;5056066;28;20695;-87
2022/01/06 00:46:06;;;;;;;8.20;2.37;;;1.00;86.00;;;;;;5055538;28;20212;-88
2022/01/06 00:48:32;;;;;;;9.23;2.07;;;1.00;86.20;;;;;;5055154;28;20183;-88
2022/01/06 00:50:58;;;;;;;9.10;2.00;;;0.90;86.30;;;;;;5056580;28;20665;-88
2022/01/06 00:53:23;;;;;;;7.00;1.90;;;0.90;86.30;;;;;;5056578;28;20175;-90
2022/01/06 00:55:49;;;;;;;5.90;2.03;;;0.90;86.20;;;;;;5054566;28;20182;-89
2022/01/06 00:58:15;;;;;;;8.87;3.67;;;1.00;86.10;;;;;;5056564;28;20558;-88
2022/01/06 01:00:41;;;;;;;5.20;2.10;;;1.00;86.10;;;;;;5055045;28;20628;-89
2022/01/06 01:03:13;;;;;;;6.90;2.30;;;1.00;86.30;;;;;;5056416;28;20655;-89
2022/01/06 01:05:40;;;;;;;5.73;2.30;;;1.00;86.30;;;;;;5054925;28;20170;-86
2022/01/06 01:08:06;;;;;;;5.40;2.10;;;1.00;86.40;;;;;;5055927;28;20542;-88
2022/01/06 01:10:32;;;;;;;10.53;2.37;;;1.00;86.50;;;;;;5055460;28;20178;-88
2022/01/06 01:12:57;;;;;;;6.10;1.93;;;0.90;86.50;;;;;;5054136;28;20720;-88
2022/01/06 01:15:23;;;;;;;5.90;2.07;;;0.90;86.60;;;;;;5055205;28;20198;-88
2022/01/06 01:17:52;;;;;;;5.77;1.93;;;0.90;86.80;;;;;;5056141;28;20176;-88
2022/01/06 01:20:19;;;;;;;14.47;2.70;;;0.90;86.90;;;;;;5054822;28;20660;-89
2022/01/06 01:22:46;;;;;;;12.33;2.40;;;1.00;87.00;;;;;;5054975;28;20321;-88
2022/01/06 01:25:12;;;;;;;2.70;1.70;;;0.90;87.00;;;;;;5054654;28;20277;-89
2022/01/06 01:27:41;;;;;;;6.73;2.00;;;0.90;87.00;;;;;;5054087;28;20182;-90
2022/01/06 01:30:11;;;;;;;8.30;2.50;;;0.90;87.00;;;;;;5055102;28;20171;-89
2022/01/06 01:32:39;;;;;;;10.37;2.03;;;0.80;87.10;;;;;;5053605;28;20204;-88
2022/01/06 01:35:07;;;;;;;6.00;1.90;;;0.80;87.10;;;;;;5053447;28;20205;-89
2022/01/06 01:37:34;;;;;;;9.10;2.50;;;0.80;87.20;;;;;;5055088;28;20164;-88
2022/01/06 01:40:00;;;;;;;8.50;1.93;;;0.70;87.10;;;;;;5053804;28;20217;-89
2022/01/06 01:42:26;;;;;;;8.50;2.00;;;0.70;87.30;;;;;;5053985;28;20182;-87
2022/01/06 01:44:53;;;;;;;9.10;2.00;;;0.80;87.50;;;;;;5056271;28;20192;-88
2022/01/06 01:47:30;;;;;;;8.83;2.43;;;0.80;87.40;;;;;;5055112;28;20661;-88
2022/01/06 01:50:10;;;;;;;6.90;2.17;;;0.70;87.30;;;;;;5054865;28;20198;-88
2022/01/06 01:52:41;;;;;;;10.60;2.27;;;0.70;87.30;;;;;;5055065;28;20207;-89
2022/01/06 01:55:08;;;;;;;16.47;3.43;;;0.70;87.30;;;;;;5056240;28;20190;-88
2022/01/06 01:57:34;;;;;;;8.10;2.63;;;0.70;87.20;;;;;;5055968;28;20176;-89
2022/01/06 02:00:02;;;;;;;8.87;2.40;;;0.70;87.30;;;;;;5054293;28;20172;-88
2022/01/06 02:02:28;;;;;;;2.97;1.80;;;0.60;87.40;;;;;;5055344;28;20177;-88
2022/01/06 02:04:54;;;;;;;4.97;2.03;;;0.70;87.70;;;;;;5055186;28;20306;-89
2022/01/06 02:07:19;;;;;;;7.30;2.23;;;0.70;87.60;;;;;;5053531;28;20182;-89
2022/01/06 02:09:45;;;;;;;11.20;2.03;;;0.70;87.60;;;;;;5055458;28;20563;-88
2022/01/06 02:12:25;;;;;;;13.47;2.33;;;0.60;87.80;;;;;;5054025;28;20215;-88
2022/01/06 02:14:51;;;;;;;4.37;1.93;;;0.70;87.90;;;;;;5054451;28;20204;-89
2022/01/06 02:17:16;;;;;;;9.40;2.30;;;0.70;88.10;;;;;;5054868;28;20181;-88
2022/01/06 02:19:53;;;;;;;7.73;2.53;;;0.60;88.10;;;;;;5055345;28;20167;-88
2022/01/06 02:22:19;;;;;;;7.83;2.47;;;0.60;88.20;;;;;;5053869;28;20175;-89
2022/01/06 02:24:44;;;;;;;10.77;2.53;;;0.50;88.30;;;;;;5055920;28;20273;-88
2022/01/06 02:27:10;;;;;;;8.00;2.53;;;0.40;88.60;;;;;;5054535;28;20767;-89
2022/01/06 02:29:36;;;;;;;15.10;3.47;;;0.40;88.70;;;;;;5055348;28;20173;-88
2022/01/06 02:32:07;;;;;;;7.17;2.60;;;0.30;88.80;;;;;;5054575;28;20206;-88
2022/01/06 02:34:33;;;;;;;7.57;2.90;;;0.30;88.80;;;;;;5055001;28;20209;-88
2022/01/06 02:36:58;;;;;;;10.20;3.33;;;0.30;88.90;;;;;;5053698;28;20185;-88
2022/01/06 02:39:24;;;;;;;9.27;2.90;;;0.30;89.00;;;;;;5053522;28;20225;-88
2022/01/06 02:41:50;;;;;;;11.63;3.03;;;0.30;89.00;;;;;;5053980;28;20174;-89
2022/01/06 02:44:18;;;;;;;11.10;2.80;;;0.30;89.20;;;;;;5055165;28;20206;-87
2022/01/06 02:46:44;;;;;;;8.27;2.70;;;0.30;89.40;;;;;;5054852;28;20541;-88
2022/01/06 02:49:11;;;;;;;6.90;2.60;;;0.30;89.50;;;;;;5054516;28;20270;-88
2022/01/06 02:51:39;;;;;;;14.83;3.30;;;0.30;89.70;;;;;;5055409;28;20197;-88
2022/01/06 02:54:05;;;;;;;7.37;2.40;;;0.20;89.70;;;;;;5054043;28;20289;-88
2022/01/06 02:56:32;;;;;;;9.90;2.63;;;0.20;89.60;;;;;;5053755;28;20263;-88
2022/01/06 02:58:58;;;;;;;8.40;2.27;;;0.10;89.50;;;;;;5054368;28;20168;-89
2022/01/06 03:01:23;;;;;;;8.00;2.37;;;0.10;89.50;;;;;;5052574;28;20639;-89
2022/01/06 03:03:49;;;;;;;4.77;2.10;;;0.10;89.60;;;;;;5054018;28;20663;-87
2022/01/06 03:06:15;;;;;;;7.67;2.50;;;0.10;89.70;;;;;;5052809;28;20181;-87
2022/01/06 03:08:40;;;;;;;11.23;2.30;;;0.10;89.90;;;;;;5053933;28;20184;-88
2022/01/06 03:11:07;;;;;;;8.97;2.50;;;0.00;89.90;;;;;;5053935;28;20643;-87
2022/01/06 03:13:33;;;;;;;7.93;2.37;;;0.00;90.20;;;;;;5052585;28;20640;-88
2022/01/06 03:16:01;;;;;;;11.17;2.30;;;0.00;90.50;;;;;;5053751;28;20175;-87
2022/01/06 03:18:27;;;;;;;9.27;2.70;;;0.00;90.80;;;;;;5054167;28;20176;-88
2022/01/06 03:20:52;;;;;;;10.67;2.33;;;0.00;90.90;;;;;;5058157;28;20179;-87
2022/01/06 03:23:19;;;;;;;13.50;2.50;;;0.00;91.00;;;;;;5059140;28;20234;-88
2022/01/06 03:25:44;;;;;;;11.83;2.10;;;0.10;91.10;;;;;;5059271;28;20249;-89
2022/01/06 03:28:10;;;;;;;11.23;2.33;;;0.20;91.10;;;;;;5059005;28;20588;-88
2022/01/06 03:30:36;;;;;;;9.73;2.80;;;0.30;91.20;;;;;;5057980;28;20171;-87
2022/01/06 03:33:02;;;;;;;9.37;2.37;;;0.40;91.10;;;;;;5056038;28;20212;-88
2022/01/06 03:35:27;;;;;;;6.07;2.47;;;0.40;91.00;;;;;;5084912;22;20269;-89
2022/01/06 03:37:53;;;;;;;8.63;2.30;;;0.50;91.00;;;;;;5061355;28;20176;-90
2022/01/06 03:40:20;;;;;;;6.83;2.60;;;0.50;90.90;;;;;;5060560;28;20179;-89
2022/01/06 03:42:46;;;;;;;5.03;2.50;;;0.50;90.70;;;;;;5078568;28;20179;-89
2022/01/06 03:45:15;;;;;;;15.23;2.30;;;0.50;90.60;;;;;;5060931;28;20704;-89
2022/01/06 03:47:41;;;;;;;16.20;2.17;;;0.60;90.50;;;;;;5061683;28;20559;-89
2022/01/06 03:50:08;;;;;;;8.87;2.20;;;0.60;90.50;;;;;;5079492;28;20261;-89
2022/01/06 03:52:35;;;;;;;8.03;2.63;;;0.60;90.50;;;;;;5060861;28;20205;-89
2022/01/06 03:55:01;;;;;;;10.60;2.30;;;0.60;90.50;;;;;;5060996;28;20197;-89
2022/01/06 03:57:27;;;;;;;15.00;3.07;;;0.60;90.50;;;;;;5079017;28;20172;-89
2022/01/06 03:59:52;;;;;;;11.33;2.43;;;0.60;90.50;;;;;;5060852;28;20707;-89
2022/01/06 04:02:18;;;;;;;5.07;2.13;;;0.70;90.50;;;;;;5060338;28;20184;-89
2022/01/06 04:04:43;;;;;;;12.23;2.67;;;0.70;90.50;;;;;;5060068;28;20276;-89
2022/01/06 04:07:09;;;;;;;11.97;2.50;;;0.70;90.60;;;;;;5060533;28;20547;-89
2022/01/06 04:09:35;;;;;;;10.13;2.30;;;0.70;90.60;;;;;;5078152;28;20178;-89
2022/01/06 04:12:00;;;;;;;7.57;2.00;;;0.70;90.70;;;;;;5060524;28;20287;-89
2022/01/06 04:14:26;;;;;;;9.27;2.37;;;0.70;90.60;;;;;;5077859;28;20613;-89
2022/01/06 04:16:58;;;;;;;7.27;2.90;;;0.70;90.60;;;;;;5060613;28;20212;-89
2022/01/06 04:19:24;;;;;;;15.33;2.23;;;0.80;90.40;;;;;;5060842;28;20484;-89
2022/01/06 04:21:49;;;;;;;8.37;2.23;;;0.80;90.30;;;;;;5059325;28;20272;-89
2022/01/06 04:24:15;;;;;;;10.93;1.93;;;0.80;90.00;;;;;;5060323;28;20293;-89
2022/01/06 04:26:40;;;;;;;12.23;2.47;;;0.80;89.90;;;;;;5077642;28;20192;-89
2022/01/06 04:29:06;;;;;;;6.57;2.43;;;0.80;89.70;;;;;;5059443;28;20554;-89
2022/01/06 04:31:32;;;;;;;12.07;3.07;;;0.80;89.60;;;;;;5076463;28;20244;-89
2022/01/06 04:33:57;;;;;;;9.67;2.40;;;0.80;89.60;;;;;;5077335;28;20261;-89
2022/01/06 04:36:23;;;;;;;6.17;2.30;;;0.70;89.70;;;;;;5077990;28;20244;-89
2022/01/06 04:38:48;;;;;;;8.60;2.57;;;0.70;89.70;;;;;;5077600;28;20265;-89
2022/01/06 04:41:14;;;;;;;11.57;2.50;;;0.70;89.80;;;;;;5059162;28;20332;-89
2022/01/06 04:43:40;;;;;;;7.60;2.00;;;0.70;89.80;;;;;;5059247;28;20182;-89
2022/01/06 04:46:05;;;;;;;16.33;2.70;;;0.70;89.80;;;;;;5059615;28;20180;-89
2022/01/06 04:48:32;;;;;;;11.90;2.50;;;0.70;89.80;;;;;;5059438;28;20181;-89
2022/01/06 04:50:58;;;;;;;14.23;2.50;;;0.80;89.90;;;;;;5059600;28;20179;-89
2022/01/06 04:53:23;;;;;;;11.53;2.20;;;0.80;89.70;;;;;;5059225;28;20218;-89
2022/01/06 04:55:51;;;;;;;7.57;2.73;;;0.80;89.60;;;;;;5077193;28;20190;-89
2022/01/06 04:58:17;;;;;;;11.50;1.97;;;0.90;89.60;;;;;;5077228;28;20176;-89
2022/01/06 05:00:43;;;;;;;9.63;2.50;;;0.90;89.60;;;;;;5058979;28;20260;-89
2022/01/06 05:03:08;;;;;;;6.80;2.07;;;0.90;89.60;;;;;;5059605;28;20182;-89
2022/01/06 05:05:34;;;;;;;4.50;2.00;;;0.80;89.60;;;;;;5077288;28;20196;-89
2022/01/06 05:08:01;;;;;;;7.13;1.90;;;0.90;89.70;;;;;;5059114;28;20202;-89
2022/01/06 05:10:26;;;;;;;13.43;2.30;;;0.80;89.70;;;;;;5077165;28;20220;-89
2022/01/06 05:12:52;;;;;;;16.40;2.23;;;0.80;89.70;;;;;;5059130;28;20289;-89
2022/01/06 05:15:18;;;;;;;12.73;2.57;;;0.80;89.80;;;;;;5058410;28;20678;-89
2022/01/06 05:17:43;;;;;;;17.17;2.50;;;0.80;90.00;;;;;;5076697;28;20255;-89
2022/01/06 05:20:10;;;;;;;11.60;2.20;;;0.80;90.10;;;;;;5058480;28;20184;-89
2022/01/06 05:22:42;;;;;;;11.33;2.50;;;0.80;90.10;;;;;;5059229;28;20177;-89
2022/01/06 05:25:08;;;;;;;3.97;2.03;;;0.80;90.10;;;;;;5076626;28;20190;-89
2022/01/06 05:27:34;;;;;;;10.87;2.00;;;0.80;90.00;;;;;;5058541;28;20183;-89
2022/01/06 05:29:59;;;;;;;8.83;2.30;;;0.80;90.00;;;;;;5058148;28;20231;-89
2022/01/06 05:32:25;;;;;;;6.00;2.07;;;0.70;90.00;;;;;;5058496;28;20199;-89
2022/01/06 05:34:51;;;;;;;7.60;2.20;;;0.70;90.10;;;;;;5076318;28;20232;-89
2022/01/06 05:37:17;;;;;;;9.37;2.30;;;0.70;90.20;;;;;;5076781;28;20535;-89
2022/01/06 05:39:42;;;;;;;12.17;2.30;;;0.70;90.20;;;;;;5058326;28;20168;-89
2022/01/06 05:42:08;;;;;;;5.43;2.43;;;0.70;90.10;;;;;;5058236;28;20192;-89
2022/01/06 05:44:35;;;;;;;10.67;2.10;;;0.80;89.30;;;;;;5058374;28;20572;-89
2022/01/06 05:47:01;;;;;;;7.10;2.13;;;0.80;89.00;;;;;;5058180;28;20184;-89
2022/01/06 05:49:26;;;;;;;10.20;1.97;;;0.80;88.70;;;;;;5058619;28;20179;-88
2022/01/06 05:51:52;;;;;;;7.90;1.90;;;0.80;88.50;;;;;;5058084;28;20203;-88
2022/01/06 05:54:18;;;;;;;10.80;1.83;;;0.90;88.00;;;;;;5058172;28;20205;-89
2022/01/06 05:56:43;;;;;;;5.23;1.87;;;0.90;87.70;;;;;;5075951;28;20177;-88
2022/01/06 05:59:09;;;;;;;6.10;1.87;;;0.90;87.60;;;;;;5076299;28;20254;-88
2022/01/06 06:01:34;;;;;;;7.13;1.47;;;0.90;87.60;;;;;;5057949;28;20180;-89
2022/01/06 06:04:00;;;;;;;9.03;1.93;;;0.80;87.80;;;;;;5058395;28;20201;-89
2022/01/06 06:06:26;;;;;;;6.73;1.97;;;0.80;88.00;;;;;;5057856;28;20191;-88
2022/01/06 06:08:51;;;;;;;7.23;2.23;;;0.70;88.20;;;;;;5076622;28;20208;-88
2022/01/06 06:11:17;;;;;;;11.37;1.83;;;0.80;88.10;;;;;;5058025;28;20183;-88
2022/01/06 06:13:42;;;;;;;11.83;2.00;;;0.80;88.00;;;;;;5058282;28;20205;-88
2022/01/06 06:16:08;;;;;;;4.77;1.93;;;0.70;88.10;;;;;;5058137;28;20192;-88
2022/01/06 06:18:34;;;;;;;6.60;1.63;;;0.70;88.10;;;;;;5076048;28;20187;-89
2022/01/06 06:20:59;;;;;;;8.77;1.70;;;0.60;88.10;;;;;;5058070;28;20172;-88
2022/01/06 06:23:25;;;;;;;8.07;1.90;;;0.60;88.20;;;;;;5058087;28;20179;-89
2022/01/06 06:25:50;;;;;;;3.50;1.40;;;0.70;88.40;;;;;;5058226;28;20215;-88
2022/01/06 06:28:16;;;;;;;13.20;2.03;;;0.60;88.60;;;;;;5057985;28;20667;-88
2022/01/06 06:30:41;;;;;;;7.40;1.80;;;0.60;88.70;;;;;;5057894;28;20561;-89
2022/01/06 06:33:07;;;;;;;8.93;3.43;;;0.60;88.80;;;;;;5057872;28;20233;-89
2022/01/06 06:35:33;;;;;;;7.03;1.80;;;0.70;89.10;;;;;;5075566;28;20297;-88
2022/01/06 06:37:59;;;;;;;4.00;1.67;;;0.70;89.10;;;;;;5057801;28;20182;-88
2022/01/06 06:40:24;;;;;;;4.90;2.00;;;0.70;89.20;;;;;;5057857;28;20186;-88
2022/01/06 06:42:51;;;;;;;7.57;1.93;;;0.80;89.20;;;;;;5075666;28;20179;-88
2022/01/06 06:45:19;;;;;;;6.43;1.73;;;0.80;89.30;;;;;;5057565;28;20286;-88
2022/01/06 06:47:46;;;;;;;7.77;2.20;;;0.80;89.30;;;;;;5057602;28;20190;-88
2022/01/06 06:50:15;;;;;;;3.87;2.00;;;0.80;89.30;;;;;;5057183;28;20186;-88
2022/01/06 06:52:41;;;;;;;10.27;2.53;;;0.80;89.50;;;;;;5057291;28;20234;-88
2022/01/06 06:55:07;;;;;;;5.07;1.80;;;0.80;89.80;;;;;;5056432;28;20676;-88
2022/01/06 06:57:33;;;;;;;5.90;1.67;;;0.70;89.90;;;;;;5057954;28;20505;-88
2022/01/06 07:00:03;;;;;;;3.67;2.17;;;0.80;89.90;;;;;;5075326;28;20171;-88
2022/01/06 07:02:29;;;;;;;2.77;1.63;;;0.70;90.00;;;;;;5057112;28;20191;-88
2022/01/06 07:04:54;;;;;;;5.57;1.47;;;0.70;90.10;;;;;;5057303;28;20206;-88
2022/01/06 07:07:20;;;;;;;4.27;1.63;;;0.60;90.30;;;;;;5057038;28;20193;-88
2022/01/06 07:09:45;;;;;;;7.97;2.00;;;0.60;90.40;;;;;;5075201;28;20175;-88
2022/01/06 07:12:11;;;;;;;7.60;2.03;;;0.60;90.50;;;;;;5057460;28;20234;-88
2022/01/06 07:14:37;;;;;;;4.87;2.00;;;0.60;90.70;;;;;;5074910;28;20206;-88
2022/01/06 07:17:03;;;;;;;9.23;2.70;;;0.60;90.80;;;;;;5057548;28;20171;-88
2022/01/06 07:19:28;;;;;;;7.90;2.00;;;0.60;90.90;;;;;;5057532;28;20185;-88
2022/01/06 07:21:54;;;;;;;2.30;1.43;;;0.60;90.90;;;;;;5056786;28;20182;-88
2022/01/06 07:24:19;;;;;;;5.53;1.80;;;0.60;91.00;;;;;;5057003;28;20747;-88
2022/01/06 07:26:45;;;;;;;5.23;1.80;;;0.70;91.10;;;;;;5057015;28;20223;-88
2022/01/06 07:29:11;;;;;;;7.00;2.17;;;0.70;91.00;;;;;;5075031;28;20202;-88
2022/01/06 07:31:36;;;;;;;5.93;1.80;;;0.70;91.00;;;;;;5074661;28;20637;-88
2022/01/06 07:34:02;;;;;;;6.53;2.00;;;0.70;90.90;;;;;;5056721;28;20261;-88
2022/01/06 07:36:27;;;;;;;5.63;2.00;;;0.70;90.90;;;;;;5074943;28;20628;-88
2022/01/06 07:38:53;;;;;;;9.20;2.13;;;0.70;90.80;;;;;;5075392;28;20533;-88
2022/01/06 07:41:19;;;;;;;11.80;2.40;;;0.70;90.80;;;;;;5056985;28;20180;-88
2022/01/06 07:43:45;;;;;;;5.57;1.87;;;0.60;90.90;;;;;;5057307;28;20660;-88
2022/01/06 07:46:11;;;;;;;6.93;1.93;;;0.60;90.90;;;;;;5075176;28;20168;-88
2022/01/06 07:48:48;;;;;;;9.40;2.03;;;0.70;91.00;;;;;;5075043;28;20206;-88
2022/01/06 07:51:15;;;;;;;9.53;2.37;;;0.60;90.90;;;;;;5057578;28;20196;-88
2022/01/06 07:53:41;;;;;;;6.03;2.07;;;0.60;90.90;;;;;;5056926;28;20172;-89
2022/01/06 07:56:06;;;;;;;14.97;2.63;;;0.60;91.00;;;;;;5058391;28;20173;-88
2022/01/06 07:58:32;;;;;;;5.20;1.80;;;0.60;91.00;;;;;;5058547;28;20719;-88
2022/01/06 08:01:00;;;;;;;5.77;2.03;;;0.60;91.00;;;;;;5058186;28;20653;-88
2022/01/06 08:03:26;;;;;;;6.93;2.07;;;0.60;91.00;;;;;;5057930;28;20204;-88
2022/01/06 08:05:52;;;;;;;12.07;4.37;;;0.60;91.00;;;;;;5058965;28;20200;-89
2022/01/06 08:08:17;;;;;;;6.10;2.17;;;0.50;91.10;;;;;;5060460;28;20179;-89
2022/01/06 08:10:43;;;;;;;4.80;2.00;;;0.50;91.10;;;;;;5060403;28;20230;-88
2022/01/06 08:13:09;;;;;;;9.40;2.40;;;0.40;91.10;;;;;;5078323;28;20283;-88
2022/01/06 08:15:34;;;;;;;10.00;2.30;;;0.40;91.20;;;;;;5078648;28;20189;-88
2022/01/06 08:18:00;;;;;;;6.90;2.33;;;0.50;91.30;;;;;;5078146;28;20171;-88
2022/01/06 08:20:25;;;;;;;7.33;2.40;;;0.50;91.40;;;;;;5061053;28;20179;-88
2022/01/06 08:22:51;;;;;;;8.17;2.13;;;0.60;91.30;;;;;;5061159;28;20279;-88
2022/01/06 08:25:17;;;;;;;7.27;2.13;;;0.50;91.30;;;;;;5060543;28;20253;-88
2022/01/06 08:27:42;;;;;;;5.73;2.27;;;0.50;91.30;;;;;;5060333;28;20191;-88
2022/01/06 08:30:08;;;;;;;10.83;3.10;;;0.50;91.20;;;;;;5060979;28;20185;-88
2022/01/06 08:32:35;;;;;;;10.63;2.70;;;0.50;91.20;;;;;;5060412;28;20235;-88
2022/01/06 08:35:01;;;;;;;8.73;1.93;;;0.60;91.30;;;;;;5060665;28;20687;-89
2022/01/06 08:37:27;;;;;;;8.57;2.50;;;0.50;91.20;;;;;;5060358;28;20252;-88
2022/01/06 08:39:52;;;;;;;8.77;2.53;;;0.50;91.20;;;;;;5060113;28;20184;-88
2022/01/06 08:42:18;;;;;;;7.67;2.90;;;0.40;91.20;;;;;;5060063;28;20187;-88
2022/01/06 08:44:44;;;;;;;10.50;2.50;;;0.50;91.30;;;;;;5059411;28;20199;-88
2022/01/06 08:47:10;;;;;;;9.37;2.93;;;0.50;91.30;;;;;;5078625;28;20186;-88
2022/01/06 08:49:36;;;;;;;9.17;2.83;;;0.50;91.30;;;;;;5060300;28;20183;-88
2022/01/06 08:52:03;;;;;;;6.80;2.80;;;0.50;91.30;;;;;;5060963;28;20309;-89
2022/01/06 08:54:29;;;;;;;8.80;3.77;;;0.50;91.30;;;;;;5059778;28;20200;-88
2022/01/06 08:56:54;;;;;;;6.87;2.33;;;0.60;91.20;;;;;;5077903;28;20169;-88
2022/01/06 08:59:20;;;;;;;7.60;2.50;;;0.50;91.10;;;;;;5077956;28;20182;-88
2022/01/06 09:01:45;;;;;;;5.10;2.10;;;0.60;91.00;;;;;;5060041;28;20666;-88
2022/01/06 09:04:11;;;;;;;10.07;2.60;;;0.70;91.00;;;;;;5078145;28;20197;-88
2022/01/06 09:06:37;;;;;;;7.63;2.90;;;0.60;90.90;;;;;;5078328;28;20627;-88
2022/01/06 09:09:03;;;;;;;8.00;2.60;;;0.70;91.00;;;;;;5060577;28;20179;-88
2022/01/06 09:11:28;;;;;;;7.90;2.20;;;0.70;91.00;;;;;;5060488;28;20186;-88
2022/01/06 09:13:54;;;;;;;8.03;2.43;;;0.80;91.10;;;;;;5059923;28;20651;-89
2022/01/06 09:16:20;;;;;;;12.50;2.70;;;0.90;91.00;;;;;;5059420;28;20180;-88
2022/01/06 09:18:45;;;;;;;10.60;2.73;;;0.90;90.80;;;;;;5059854;28;20237;-88
2022/01/06 09:21:11;;;;;;;8.77;2.50;;;0.90;90.80;;;;;;5060264;28;20180;-88
2022/01/06 09:23:37;;;;;;;5.57;2.10;;;1.10;90.80;;;;;;5058806;28;20177;-88
2022/01/06 09:26:03;;;;;;;8.57;2.50;;;1.10;90.60;;;;;;5077244;28;20565;-88
2022/01/06 09:28:28;;;;;;;11.73;2.47;;;1.10;90.60;;;;;;5059128;28;20647;-88
2022/01/06 09:30:55;;;;;;;10.43;2.30;;;1.20;90.40;;;;;;5076644;28;20224;-88
2022/01/06 09:33:22;;;;;;;7.23;2.13;;;1.20;90.20;;;;;;5058807;28;20242;-88
2022/01/06 09:35:49;;;;;;;6.87;2.00;;;1.20;90.20;;;;;;5143201;22;20236;-86
2022/01/06 09:38:16;;;;;;;11.20;2.63;;;1.10;90.10;;;;;;5053143;28;20171;-85
2022/01/06 09:40:43;;;;;;;9.57;1.70;;;1.00;90.10;;;;;;5053149;28;20172;-85
2022/01/06 09:43:12;;;;;;;7.27;2.40;;;1.20;90.40;;;;;;5053019;28;20177;-85
2022/01/06 09:45:38;;;;;;;11.83;3.13;;;1.30;90.30;;;;;;5052962;28;20580;-85
2022/01/06 09:48:05;;;;;;;8.53;2.37;;;1.30;90.20;;;;;;5054199;28;20659;-85
2022/01/06 09:50:32;;;;;;;5.43;2.27;;;1.50;90.30;;;;;;5052918;28;20174;-86
2022/01/06 09:52:58;;;;;;;9.90;2.53;;;1.50;90.00;;;;;;5054037;28;20655;-86
2022/01/06 09:55:24;;;;;;;10.00;2.73;;;1.60;89.90;;;;;;5052779;28;20198;-86
2022/01/06 09:57:55;;;;;;;3.97;2.03;;;1.60;89.80;;;;;;5054056;28;20172;-86
2022/01/06 10:00:21;;;;;;;14.20;2.90;;;1.70;89.90;;;;;;5053948;28;20156;-86
2022/01/06 10:02:56;;;;;;;11.80;2.50;;;1.80;89.80;;;;;;5052692;28;20193;-85
2022/01/06 10:05:23;;;;;;;9.00;2.40;;;1.90;89.60;;;;;;5054142;28;20250;-86
2022/01/06 10:07:48;;;;;;;8.40;2.13;;;2.00;89.40;;;;;;5052701;28;20179;-86
2022/01/06 10:10:15;;;;;;;11.57;2.60;;;2.10;88.70;;;;;;5052661;28;20181;-85
2022/01/06 10:12:42;;;;;;;10.43;2.50;;;2.30;88.50;;;;;;5053775;28;20223;-86
2022/01/06 10:15:19;;;;;;;8.37;2.50;;;2.30;88.20;;;;;;5052469;28;20635;-86
2022/01/06 10:17:45;;;;;;;7.27;3.67;;;2.30;88.10;;;;;;5053670;28;20219;-85
2022/01/06 10:20:17;;;;;;;12.27;2.80;;;2.40;88.10;;;;;;5052451;28;20209;-86
2022/01/06 10:22:47;;;;;;;6.80;2.60;;;2.60;87.80;;;;;;5052502;28;20618;-86
2022/01/06 10:25:13;;;;;;;8.37;2.47;;;2.60;87.50;;;;;;5053593;28;20201;-86
2022/01/06 10:27:41;;;;;;;6.27;2.13;;;2.60;87.10;;;;;;5053395;28;20186;-85
2022/01/06 10:30:08;;;;;;;10.70;2.73;;;2.70;87.00;;;;;;5052864;28;20303;-85
2022/01/06 10:32:34;;;;;;;9.87;2.20;;;2.70;87.20;;;;;;5052124;28;20289;-85
2022/01/06 10:35:03;;;;;;;9.43;2.53;;;2.80;86.90;;;;;;5053300;28;20676;-86
2022/01/06 10:37:40;;;;;;;7.17;2.30;;;2.80;87.00;;;;;;5052178;28;20253;-85
2022/01/06 10:40:13;;;;;;;8.50;1.97;;;2.90;87.00;;;;;;5052103;28;20308;-85
2022/01/06 10:42:41;;;;;;;4.53;2.10;;;3.00;86.20;;;;;;5052073;28;20174;-85
2022/01/06 10:45:13;;;;;;;8.20;2.20;;;3.00;86.30;;;;;;5053195;28;20202;-86
2022/01/06 10:47:47;;;;;;;8.30;2.53;;;3.00;86.50;;;;;;5053336;28;20621;-85
2022/01/06 10:50:22;;;;;;;5.63;2.10;;;3.00;86.70;;;;;;5052130;28;20519;-86
2022/01/06 10:52:50;;;;;;;13.40;2.33;;;3.20;86.70;;;;;;5053184;28;20243;-85
2022/01/06 10:55:23;;;;;;;9.00;2.20;;;3.30;86.60;;;;;;5051852;28;20667;-86
2022/01/06 10:58:02;;;;;;;3.83;1.93;;;3.40;86.00;;;;;;5052023;28;20179;-86
2022/01/06 11:00:34;;;;;;;5.53;2.20;;;3.60;85.80;;;;;;5051863;28;20581;-85
2022/01/06 11:03:11;;;;;;;5.50;2.43;;;3.60;84.80;;;;;;5051960;28;20518;-86
2022/01/06 11:05:42;;;;;;;6.23;2.43;;;3.70;84.90;;;;;;5051825;28;20333;-85
2022/01/06 11:08:09;;;;;;;10.30;3.03;;;3.80;84.40;;;;;;5051867;28;20172;-86
2022/01/06 11:10:40;;;;;;;9.93;2.20;;;3.80;83.70;;;;;;5051748;28;20202;-86
2022/01/06 11:13:05;;;;;;;5.13;2.00;;;3.80;83.70;;;;;;5051730;28;20625;-86
2022/01/06 11:15:32;;;;;;;7.80;2.17;;;3.90;83.50;;;;;;5052899;28;20214;-86
2022/01/06 11:18:00;;;;;;;11.57;2.00;;;4.10;83.90;;;;;;5051776;28;20590;-86
2022/01/06 11:20:37;;;;;;;7.33;2.30;;;4.10;82.70;;;;;;5053009;28;20168;-88
2022/01/06 11:23:03;;;;;;;11.37;2.23;;;4.20;82.20;;;;;;5052147;28;20167;-91
2022/01/06 11:25:34;;;;;;;4.90;1.80;;;4.30;82.20;;;;;;5051952;28;20198;-91
2022/01/06 11:28:09;;;;;;;6.57;2.23;;;4.30;81.40;;;;;;5052708;28;20164;-92
2022/01/06 11:30:38;;;;;;;10.17;2.57;;;4.40;81.60;;;;;;5052155;28;20254;-91
2022/01/06 11:33:04;;;;;;;5.60;1.87;;;4.50;81.40;;;;;;5052138;28;20204;-91
2022/01/06 11:35:52;;;;;;;7.13;2.00;;;4.60;81.10;;;;;;5051989;28;20696;-92
2022/01/06 11:38:20;;;;;;;7.20;1.73;;;4.60;80.90;;;;;;5052479;28;20165;-91
2022/01/06 11:40:50;;;;;;;5.17;1.70;;;4.60;80.60;;;;;;5053997;28;20172;-92
2022/01/06 11:43:18;;;;;;;3.23;1.70;;;4.70;81.00;;;;;;5055668;28;20185;-92
2022/01/06 11:45:44;;;;;;;8.80;2.33;;;4.80;80.50;;;;;;5055500;28;20219;-92
2022/01/06 11:48:14;;;;;;;5.77;1.83;;;5.00;80.20;;;;;;5055492;28;20260;-91
2022/01/06 11:50:45;;;;;;;4.70;1.60;;;4.90;79.90;;;;;;5055426;28;20172;-90
2022/01/06 11:53:11;;;;;;;9.10;2.17;;;4.90;79.60;;;;;;5055238;28;20204;-92
2022/01/06 11:55:42;;;;;;;6.07;1.73;;;5.10;79.10;;;;;;5055234;28;20220;-91
2022/01/06 11:58:17;;;;;;;8.10;2.03;;;5.20;79.00;;;;;;5055454;28;20236;-92
2022/01/06 12:01:05;;;;;;;9.60;2.23;;;5.30;78.50;;;;;;5055387;28;20654;-91
2022/01/06 12:03:35;;;;;;;7.03;2.00;;;5.30;78.70;;;;;;5055319;28;20719;-91
2022/01/06 12:06:01;;;;;;;6.80;2.00;;;5.30;77.90;;;;;;5055770;28;20812;-91
2022/01/06 12:08:41;;;;;;;4.60;1.67;;;5.20;78.20;;;;;;5055462;28;20184;-91
2022/01/06 12:11:23;;;;;;;12.67;2.50;;;5.30;78.60;;;;;;5054903;28;20678;-91
2022/01/06 12:13:50;;;;;;;4.70;1.93;;;5.20;76.40;;;;;;5055306;28;20253;-91
2022/01/06 12:16:31;;;;;;;6.63;1.80;;;5.30;76.60;;;;;;5055444;28;20218;-91
2022/01/06 12:18:58;;;;;;;8.37;2.13;;;5.60;76.90;;;;;;5055777;28;20604;-92
2022/01/06 12:21:24;;;;;;;7.50;2.10;;;5.70;75.60;;;;;;5055791;28;20201;-92
2022/01/06 12:24:08;;;;;;;5.83;1.87;;;5.60;75.30;;;;;;5055707;28;20508;-92
2022/01/06 12:26:35;;;;;;;5.57;1.63;;;5.50;75.10;;;;;;5054833;28;20177;-91
2022/01/06 12:29:02;;;;;;;14.17;2.27;;;5.40;77.20;;;;;;5055234;28;20541;-92
2022/01/06 12:31:30;;;;;;;4.07;1.63;;;5.40;77.80;;;;;;5055120;28;20194;-92
2022/01/06 12:34:01;;;;;;;4.63;2.00;;;5.50;79.10;;;;;;5054765;28;20181;-92
2022/01/06 12:36:30;;;;;;;11.30;2.20;;;5.50;76.70;;;;;;5054757;28;20601;-92
2022/01/06 12:38:56;;;;;;;5.70;1.80;;;5.30;78.50;;;;;;5054788;28;20209;-92
2022/01/06 12:41:29;;;;;;;14.10;2.10;;;5.10;77.40;;;;;;5055560;28;20264;-92
2022/01/06 12:43:55;;;;;;;16.67;2.90;;;5.10;76.90;;;;;;5054495;28;20175;-92
2022/01/06 12:46:23;;;;;;;10.80;2.07;;;5.20;77.90;;;;;;5054633;28;20223;-91
2022/01/06 12:48:51;;;;;;;6.80;2.13;;;5.30;77.20;;;;;;5054505;28;20204;-92
2022/01/06 12:51:22;;;;;;;9.57;1.97;;;5.30;77.00;;;;;;5054249;28;20176;-91
2022/01/06 12:53:52;;;;;;;5.27;2.13;;;5.30;77.80;;;;;;5054254;28;20261;-92
2022/01/06 12:56:27;;;;;;;6.20;1.90;;;5.30;78.10;;;;;;5054231;28;20220;-91
2022/01/06 12:58:55;;;;;;;6.53;2.30;;;5.40;77.90;;;;;;5054582;28;20176;-92
2022/01/06 13:01:21;;;;;;;6.17;3.03;;;5.50;78.50;;;;;;5054659;28;20201;-92
2022/01/06 13:03:53;;;;;;;7.83;2.13;;;5.50;77.40;;;;;;5054199;28;20265;-92